Terminal Aerodrome Forecast
Issued by NWS Austin/San Antonio, TX

Home | Current Version | Previous Version | Text Only | Print | Product List | Glossary On
Versions: 1 2 3 4 5 6 7 8 9 10 11 12 13 14 15 16 17 18 19 20 21
052
FTUS44 KEWX 300541
TAFDRT
TAF
KDRT 300541Z 3006/3106 11010KT P6SM BKN050
     FM300800 12011KT P6SM OVC020
     FM301000 12009KT P6SM VCSH OVC009
     FM301400 07008KT P6SM VCTS OVC025CB
     FM301700 13011KT P6SM BKN040=

USA.gov is the U.S. government's official web portal to all federal, state and local government web resources and services.